sensor_id;sensor_type;location;lat;lon;timestamp;P1;durP1;ratioP1;P2;durP2;ratioP2
3054;SDS011;1537;52.018;8.542;2023-03-19T00:02:24;17.30;;;7.17;;
3054;SDS011;1537;52.018;8.542;2023-03-19T00:05:49;14.13;;;9.10;;
3054;SDS011;1537;52.018;8.542;2023-03-19T00:09:16;8.70;;;5.97;;
3054;SDS011;1537;52.018;8.542;2023-03-19T00:12:40;10.93;;;5.33;;
3054;SDS011;1537;52.018;8.542;2023-03-19T00:16:03;11.20;;;4.90;;
3054;SDS011;1537;52.018;8.542;2023-03-19T00:19:27;6.40;;;4.80;;
3054;SDS011;1537;52.018;8.542;2023-03-19T00:22:51;10.17;;;5.80;;
3054;SDS011;1537;52.018;8.542;2023-03-19T00:26:16;9.40;;;5.50;;
3054;SDS011;1537;52.018;8.542;2023-03-19T00:29:40;6.63;;;5.13;;
3054;SDS011;1537;52.018;8.542;2023-03-19T00:33:04;8.90;;;5.70;;
3054;SDS011;1537;52.018;8.542;2023-03-19T00:36:28;8.53;;;5.27;;
3054;SDS011;1537;52.018;8.542;2023-03-19T00:39:51;6.20;;;5.17;;
3054;SDS011;1537;52.018;8.542;2023-03-19T00:43:16;7.93;;;6.33;;
3054;SDS011;1537;52.018;8.542;2023-03-19T00:46:40;7.73;;;5.53;;
3054;SDS011;1537;52.018;8.542;2023-03-19T00:50:04;10.13;;;5.90;;
3054;SDS011;1537;52.018;8.542;2023-03-19T00:53:29;13.57;;;7.17;;
3054;SDS011;1537;52.018;8.542;2023-03-19T00:56:52;8.30;;;5.13;;
3054;SDS011;1537;52.018;8.542;2023-03-19T01:00:17;8.23;;;4.93;;
3054;SDS011;1537;52.018;8.542;2023-03-19T01:03:41;7.70;;;4.90;;
3054;SDS011;1537;52.018;8.542;2023-03-19T01:07:06;15.40;;;6.20;;
3054;SDS011;1537;52.018;8.542;2023-03-19T01:10:31;6.70;;;4.40;;
3054;SDS011;1537;52.018;8.542;2023-03-19T01:13:56;9.07;;;5.83;;
3054;SDS011;1537;52.018;8.542;2023-03-19T01:17:21;7.27;;;5.10;;
3054;SDS011;1537;52.018;8.542;2023-03-19T01:20:45;7.57;;;5.60;;
3054;SDS011;1537;52.018;8.542;2023-03-19T01:24:09;5.87;;;4.83;;
3054;SDS011;1537;52.018;8.542;2023-03-19T01:27:32;7.40;;;5.20;;
3054;SDS011;1537;52.018;8.542;2023-03-19T01:30:58;6.43;;;5.10;;
3054;SDS011;1537;52.018;8.542;2023-03-19T01:34:42;7.70;;;5.40;;
3054;SDS011;1537;52.018;8.542;2023-03-19T01:38:10;7.43;;;4.57;;
3054;SDS011;1537;52.018;8.542;2023-03-19T01:41:34;9.80;;;5.20;;
3054;SDS011;1537;52.018;8.542;2023-03-19T01:45:37;8.20;;;4.80;;
3054;SDS011;1537;52.018;8.542;2023-03-19T01:49:27;8.90;;;5.40;;
3054;SDS011;1537;52.018;8.542;2023-03-19T01:53:20;9.83;;;5.07;;
3054;SDS011;1537;52.018;8.542;2023-03-19T01:57:13;7.70;;;5.70;;
3054;SDS011;1537;52.018;8.542;2023-03-19T02:00:47;9.13;;;4.70;;
3054;SDS011;1537;52.018;8.542;2023-03-19T02:04:12;7.60;;;5.70;;
3054;SDS011;1537;52.018;8.542;2023-03-19T02:07:37;7.97;;;5.00;;
3054;SDS011;1537;52.018;8.542;2023-03-19T02:11:04;7.20;;;5.13;;
3054;SDS011;1537;52.018;8.542;2023-03-19T02:14:29;6.90;;;5.30;;
3054;SDS011;1537;52.018;8.542;2023-03-19T02:17:52;7.53;;;4.93;;
3054;SDS011;1537;52.018;8.542;2023-03-19T02:21:17;6.70;;;4.93;;
3054;SDS011;1537;52.018;8.542;2023-03-19T02:24:44;6.30;;;5.40;;
3054;SDS011;1537;52.018;8.542;2023-03-19T02:28:17;8.53;;;5.70;;
3054;SDS011;1537;52.018;8.542;2023-03-19T02:31:47;9.13;;;5.80;;
3054;SDS011;1537;52.018;8.542;2023-03-19T02:35:11;6.07;;;4.80;;
3054;SDS011;1537;52.018;8.542;2023-03-19T02:38:34;9.10;;;6.03;;
3054;SDS011;1537;52.018;8.542;2023-03-19T02:42:01;8.30;;;5.70;;
3054;SDS011;1537;52.018;8.542;2023-03-19T02:45:28;6.87;;;5.70;;
3054;SDS011;1537;52.018;8.542;2023-03-19T02:48:53;7.20;;;5.23;;
3054;SDS011;1537;52.018;8.542;2023-03-19T02:52:18;7.27;;;5.10;;
3054;SDS011;1537;52.018;8.542;2023-03-19T02:55:43;10.80;;;5.93;;
3054;SDS011;1537;52.018;8.542;2023-03-19T02:59:07;9.27;;;4.97;;
3054;SDS011;1537;52.018;8.542;2023-03-19T03:02:32;7.80;;;6.00;;
3054;SDS011;1537;52.018;8.542;2023-03-19T03:05:59;7.40;;;4.90;;
3054;SDS011;1537;52.018;8.542;2023-03-19T03:09:23;9.77;;;4.87;;
3054;SDS011;1537;52.018;8.542;2023-03-19T03:12:48;6.37;;;5.33;;
3054;SDS011;1537;52.018;8.542;2023-03-19T03:16:12;7.00;;;5.33;;
3054;SDS011;1537;52.018;8.542;2023-03-19T03:19:37;6.53;;;5.27;;
3054;SDS011;1537;52.018;8.542;2023-03-19T03:23:01;14.93;;;6.20;;
3054;SDS011;1537;52.018;8.542;2023-03-19T03:26:25;10.40;;;5.60;;
3054;SDS011;1537;52.018;8.542;2023-03-19T03:29:48;10.87;;;5.93;;
3054;SDS011;1537;52.018;8.542;2023-03-19T03:33:12;12.17;;;5.57;;
3054;SDS011;1537;52.018;8.542;2023-03-19T03:36:39;7.27;;;5.47;;
3054;SDS011;1537;52.018;8.542;2023-03-19T03:40:03;7.67;;;5.53;;
3054;SDS011;1537;52.018;8.542;2023-03-19T03:43:30;9.40;;;5.70;;
3054;SDS011;1537;52.018;8.542;2023-03-19T03:46:53;7.50;;;5.30;;
3054;SDS011;1537;52.018;8.542;2023-03-19T03:50:17;8.63;;;5.57;;
3054;SDS011;1537;52.018;8.542;2023-03-19T03:53:45;6.80;;;6.00;;
3054;SDS011;1537;52.018;8.542;2023-03-19T03:57:09;8.73;;;5.60;;
3054;SDS011;1537;52.018;8.542;2023-03-19T04:00:33;8.87;;;5.83;;
3054;SDS011;1537;52.018;8.542;2023-03-19T04:03:58;11.50;;;5.70;;
3054;SDS011;1537;52.018;8.542;2023-03-19T04:07:22;7.93;;;6.00;;
3054;SDS011;1537;52.018;8.542;2023-03-19T04:10:50;11.30;;;5.60;;
3054;SDS011;1537;52.018;8.542;2023-03-19T04:14:14;11.63;;;6.40;;
3054;SDS011;1537;52.018;8.542;2023-03-19T04:17:38;6.63;;;5.30;;
3054;SDS011;1537;52.018;8.542;2023-03-19T04:21:03;9.70;;;5.53;;
3054;SDS011;1537;52.018;8.542;2023-03-19T04:24:28;6.20;;;4.90;;
3054;SDS011;1537;52.018;8.542;2023-03-19T04:27:56;8.60;;;6.20;;
3054;SDS011;1537;52.018;8.542;2023-03-19T04:31:22;6.30;;;4.90;;
3054;SDS011;1537;52.018;8.542;2023-03-19T04:34:46;7.23;;;4.90;;
3054;SDS011;1537;52.018;8.542;2023-03-19T04:38:10;7.63;;;5.40;;
3054;SDS011;1537;52.018;8.542;2023-03-19T04:41:34;10.07;;;5.80;;
3054;SDS011;1537;52.018;8.542;2023-03-19T04:45:22;8.70;;;6.03;;
3054;SDS011;1537;52.018;8.542;2023-03-19T04:48:46;11.43;;;6.10;;
3054;SDS011;1537;52.018;8.542;2023-03-19T04:52:10;9.40;;;7.03;;
3054;SDS011;1537;52.018;8.542;2023-03-19T04:55:34;8.33;;;5.80;;
3054;SDS011;1537;52.018;8.542;2023-03-19T04:59:02;12.00;;;7.07;;
3054;SDS011;1537;52.018;8.542;2023-03-19T05:02:27;9.90;;;6.07;;
3054;SDS011;1537;52.018;8.542;2023-03-19T05:05:51;7.80;;;5.53;;
3054;SDS011;1537;52.018;8.542;2023-03-19T05:09:15;7.80;;;6.00;;
3054;SDS011;1537;52.018;8.542;2023-03-19T05:12:39;8.90;;;5.47;;
3054;SDS011;1537;52.018;8.542;2023-03-19T05:16:04;12.53;;;5.87;;
3054;SDS011;1537;52.018;8.542;2023-03-19T05:19:29;12.60;;;5.43;;
3054;SDS011;1537;52.018;8.542;2023-03-19T05:22:53;9.17;;;5.37;;
3054;SDS011;1537;52.018;8.542;2023-03-19T05:26:26;7.23;;;4.67;;
3054;SDS011;1537;52.018;8.542;2023-03-19T05:30:17;8.47;;;4.20;;
3054;SDS011;1537;52.018;8.542;2023-03-19T05:34:16;9.03;;;4.10;;
3054;SDS011;1537;52.018;8.542;2023-03-19T05:37:42;9.63;;;4.17;;
3054;SDS011;1537;52.018;8.542;2023-03-19T05:41:06;7.43;;;5.00;;
3054;SDS011;1537;52.018;8.542;2023-03-19T05:44:41;9.80;;;5.73;;
3054;SDS011;1537;52.018;8.542;2023-03-19T05:48:15;10.33;;;8.13;;
3054;SDS011;1537;52.018;8.542;2023-03-19T05:51:39;9.17;;;5.40;;
3054;SDS011;1537;52.018;8.542;2023-03-19T05:55:06;9.67;;;5.13;;
3054;SDS011;1537;52.018;8.542;2023-03-19T05:58:43;8.83;;;5.03;;
3054;SDS011;1537;52.018;8.542;2023-03-19T06:02:11;8.80;;;4.63;;
3054;SDS011;1537;52.018;8.542;2023-03-19T06:05:35;9.20;;;4.80;;
3054;SDS011;1537;52.018;8.542;2023-03-19T06:09:08;8.53;;;4.23;;
3054;SDS011;1537;52.018;8.542;2023-03-19T06:12:36;7.80;;;4.23;;
3054;SDS011;1537;52.018;8.542;2023-03-19T06:16:12;11.73;;;5.10;;
3054;SDS011;1537;52.018;8.542;2023-03-19T06:19:47;6.77;;;4.00;;
3054;SDS011;1537;52.018;8.542;2023-03-19T06:23:11;14.60;;;5.37;;
3054;SDS011;1537;52.018;8.542;2023-03-19T06:26:37;6.20;;;3.80;;
3054;SDS011;1537;52.018;8.542;2023-03-19T06:30:10;5.47;;;4.10;;
3054;SDS011;1537;52.018;8.542;2023-03-19T06:33:35;6.73;;;4.00;;
3054;SDS011;1537;52.018;8.542;2023-03-19T06:36:59;7.57;;;4.87;;
3054;SDS011;1537;52.018;8.542;2023-03-19T06:40:22;8.97;;;5.40;;
3054;SDS011;1537;52.018;8.542;2023-03-19T06:43:46;6.27;;;4.10;;
3054;SDS011;1537;52.018;8.542;2023-03-19T06:47:11;7.07;;;5.30;;
3054;SDS011;1537;52.018;8.542;2023-03-19T06:50:36;8.70;;;4.97;;
3054;SDS011;1537;52.018;8.542;2023-03-19T06:53:59;6.30;;;4.50;;
3054;SDS011;1537;52.018;8.542;2023-03-19T06:57:23;6.50;;;4.90;;
3054;SDS011;1537;52.018;8.542;2023-03-19T07:00:48;7.80;;;5.40;;
3054;SDS011;1537;52.018;8.542;2023-03-19T07:04:13;6.03;;;4.60;;
3054;SDS011;1537;52.018;8.542;2023-03-19T07:07:37;10.00;;;5.37;;
3054;SDS011;1537;52.018;8.542;2023-03-19T07:11:01;7.50;;;4.73;;
3054;SDS011;1537;52.018;8.542;2023-03-19T07:14:26;6.53;;;4.97;;
3054;SDS011;1537;52.018;8.542;2023-03-19T07:17:50;5.30;;;4.30;;
3054;SDS011;1537;52.018;8.542;2023-03-19T07:21:15;6.00;;;4.70;;
3054;SDS011;1537;52.018;8.542;2023-03-19T07:24:38;7.33;;;5.00;;
3054;SDS011;1537;52.018;8.542;2023-03-19T07:28:02;7.47;;;5.10;;
3054;SDS011;1537;52.018;8.542;2023-03-19T07:31:26;8.27;;;5.20;;
3054;SDS011;1537;52.018;8.542;2023-03-19T07:34:50;11.33;;;5.67;;
3054;SDS011;1537;52.018;8.542;2023-03-19T07:38:15;11.23;;;6.00;;
3054;SDS011;1537;52.018;8.542;2023-03-19T07:41:39;9.40;;;4.27;;
3054;SDS011;1537;52.018;8.542;2023-03-19T07:45:08;9.80;;;5.00;;
3054;SDS011;1537;52.018;8.542;2023-03-19T07:48:32;7.50;;;5.43;;
3054;SDS011;1537;52.018;8.542;2023-03-19T07:51:56;10.60;;;5.80;;
3054;SDS011;1537;52.018;8.542;2023-03-19T07:55:21;6.40;;;5.00;;
3054;SDS011;1537;52.018;8.542;2023-03-19T07:58:45;8.67;;;5.80;;
3054;SDS011;1537;52.018;8.542;2023-03-19T08:02:09;9.47;;;5.80;;
3054;SDS011;1537;52.018;8.542;2023-03-19T08:05:36;7.00;;;5.50;;
3054;SDS011;1537;52.018;8.542;2023-03-19T08:09:00;8.83;;;5.70;;
3054;SDS011;1537;52.018;8.542;2023-03-19T08:12:26;10.40;;;5.73;;
3054;SDS011;1537;52.018;8.542;2023-03-19T08:15:49;6.80;;;5.67;;
3054;SDS011;1537;52.018;8.542;2023-03-19T08:19:14;10.27;;;5.90;;
3054;SDS011;1537;52.018;8.542;2023-03-19T08:22:39;10.93;;;6.13;;
3054;SDS011;1537;52.018;8.542;2023-03-19T08:26:03;8.23;;;7.10;;
3054;SDS011;1537;52.018;8.542;2023-03-19T08:29:29;8.53;;;6.70;;
3054;SDS011;1537;52.018;8.542;2023-03-19T08:32:52;8.00;;;7.10;;
3054;SDS011;1537;52.018;8.542;2023-03-19T08:36:17;8.67;;;7.40;;
3054;SDS011;1537;52.018;8.542;2023-03-19T08:39:41;8.67;;;7.10;;
3054;SDS011;1537;52.018;8.542;2023-03-19T08:43:04;8.30;;;6.83;;
3054;SDS011;1537;52.018;8.542;2023-03-19T08:46:29;10.47;;;6.90;;
3054;SDS011;1537;52.018;8.542;2023-03-19T08:49:54;8.50;;;6.50;;
3054;SDS011;1537;52.018;8.542;2023-03-19T08:53:18;11.97;;;6.80;;
3054;SDS011;1537;52.018;8.542;2023-03-19T08:56:41;9.33;;;7.10;;
3054;SDS011;1537;52.018;8.542;2023-03-19T09:00:06;10.23;;;6.90;;
3054;SDS011;1537;52.018;8.542;2023-03-19T09:03:32;9.57;;;6.23;;
3054;SDS011;1537;52.018;8.542;2023-03-19T09:06:55;9.20;;;7.00;;
3054;SDS011;1537;52.018;8.542;2023-03-19T09:10:19;11.00;;;7.20;;
3054;SDS011;1537;52.018;8.542;2023-03-19T09:13:42;9.57;;;6.20;;
3054;SDS011;1537;52.018;8.542;2023-03-19T09:17:06;7.93;;;6.70;;
3054;SDS011;1537;52.018;8.542;2023-03-19T09:20:31;6.80;;;6.03;;
3054;SDS011;1537;52.018;8.542;2023-03-19T09:23:55;9.27;;;6.60;;
3054;SDS011;1537;52.018;8.542;2023-03-19T09:27:18;7.37;;;6.47;;
3054;SDS011;1537;52.018;8.542;2023-03-19T09:30:44;8.70;;;7.20;;
3054;SDS011;1537;52.018;8.542;2023-03-19T09:34:08;7.90;;;6.17;;
3054;SDS011;1537;52.018;8.542;2023-03-19T09:37:34;11.00;;;6.70;;
3054;SDS011;1537;52.018;8.542;2023-03-19T09:41:02;9.00;;;6.77;;
3054;SDS011;1537;52.018;8.542;2023-03-19T09:44:31;12.20;;;6.93;;
3054;SDS011;1537;52.018;8.542;2023-03-19T09:47:57;6.67;;;5.60;;
3054;SDS011;1537;52.018;8.542;2023-03-19T09:51:27;7.13;;;5.53;;
3054;SDS011;1537;52.018;8.542;2023-03-19T09:54:57;8.70;;;5.63;;
3054;SDS011;1537;52.018;8.542;2023-03-19T09:58:26;9.90;;;5.73;;
3054;SDS011;1537;52.018;8.542;2023-03-19T10:01:56;10.57;;;6.27;;
3054;SDS011;1537;52.018;8.542;2023-03-19T10:05:28;7.90;;;5.97;;
3054;SDS011;1537;52.018;8.542;2023-03-19T10:09:19;12.10;;;6.57;;
3054;SDS011;1537;52.018;8.542;2023-03-19T10:12:55;10.87;;;6.57;;
3054;SDS011;1537;52.018;8.542;2023-03-19T10:16:25;8.23;;;6.67;;
3054;SDS011;1537;52.018;8.542;2023-03-19T10:19:51;7.83;;;6.50;;
3054;SDS011;1537;52.018;8.542;2023-03-19T10:23:30;10.17;;;6.90;;
3054;SDS011;1537;52.018;8.542;2023-03-19T10:27:00;7.33;;;6.30;;
3054;SDS011;1537;52.018;8.542;2023-03-19T10:30:33;7.87;;;6.33;;
3054;SDS011;1537;52.018;8.542;2023-03-19T10:34:03;8.60;;;7.73;;
3054;SDS011;1537;52.018;8.542;2023-03-19T10:37:33;8.57;;;7.63;;
3054;SDS011;1537;52.018;8.542;2023-03-19T10:41:07;11.00;;;8.20;;
3054;SDS011;1537;52.018;8.542;2023-03-19T10:44:42;9.83;;;7.90;;
3054;SDS011;1537;52.018;8.542;2023-03-19T10:48:13;12.40;;;7.83;;
3054;SDS011;1537;52.018;8.542;2023-03-19T10:51:38;10.20;;;8.10;;
3054;SDS011;1537;52.018;8.542;2023-03-19T10:55:11;9.10;;;7.87;;
3054;SDS011;1537;52.018;8.542;2023-03-19T10:58:37;17.13;;;8.50;;
3054;SDS011;1537;52.018;8.542;2023-03-19T11:02:15;9.70;;;7.57;;
3054;SDS011;1537;52.018;8.542;2023-03-19T11:05:51;9.80;;;7.57;;
3054;SDS011;1537;52.018;8.542;2023-03-19T11:09:35;10.40;;;7.67;;
3054;SDS011;1537;52.018;8.542;2023-03-19T11:13:02;9.80;;;7.43;;
3054;SDS011;1537;52.018;8.542;2023-03-19T11:16:28;11.83;;;6.80;;
3054;SDS011;1537;52.018;8.542;2023-03-19T11:19:52;11.07;;;7.20;;
3054;SDS011;1537;52.018;8.542;2023-03-19T11:23:18;7.87;;;5.50;;
3054;SDS011;1537;52.018;8.542;2023-03-19T11:26:42;7.90;;;5.90;;
3054;SDS011;1537;52.018;8.542;2023-03-19T11:30:17;7.33;;;6.37;;
3054;SDS011;1537;52.018;8.542;2023-03-19T11:33:44;7.40;;;6.30;;
3054;SDS011;1537;52.018;8.542;2023-03-19T11:37:20;8.50;;;7.07;;
3054;SDS011;1537;52.018;8.542;2023-03-19T11:40:51;9.63;;;7.70;;
3054;SDS011;1537;52.018;8.542;2023-03-19T11:44:19;8.70;;;7.90;;
3054;SDS011;1537;52.018;8.542;2023-03-19T11:47:50;10.17;;;8.40;;
3054;SDS011;1537;52.018;8.542;2023-03-19T11:51:23;9.20;;;8.30;;
3054;SDS011;1537;52.018;8.542;2023-03-19T11:54:56;8.27;;;7.33;;
3054;SDS011;1537;52.018;8.542;2023-03-19T12:02:37;7.77;;;6.97;;
3054;SDS011;1537;52.018;8.542;2023-03-19T12:06:20;7.87;;;6.23;;
3054;SDS011;1537;52.018;8.542;2023-03-19T12:09:58;7.97;;;6.00;;
3054;SDS011;1537;52.018;8.542;2023-03-19T12:13:42;8.27;;;6.80;;
3054;SDS011;1537;52.018;8.542;2023-03-19T12:17:26;17.50;;;7.50;;
3054;SDS011;1537;52.018;8.542;2023-03-19T12:21:00;9.20;;;6.87;;
3054;SDS011;1537;52.018;8.542;2023-03-19T12:24:35;7.70;;;6.83;;
3054;SDS011;1537;52.018;8.542;2023-03-19T12:28:09;10.53;;;7.30;;
3054;SDS011;1537;52.018;8.542;2023-03-19T12:31:42;8.90;;;7.57;;
3054;SDS011;1537;52.018;8.542;2023-03-19T12:35:20;8.40;;;7.07;;
3054;SDS011;1537;52.018;8.542;2023-03-19T12:38:50;8.80;;;7.20;;
3054;SDS011;1537;52.018;8.542;2023-03-19T12:42:19;8.60;;;7.10;;
3054;SDS011;1537;52.018;8.542;2023-03-19T12:45:45;8.20;;;6.73;;
3054;SDS011;1537;52.018;8.542;2023-03-19T12:49:13;9.17;;;7.73;;
3054;SDS011;1537;52.018;8.542;2023-03-19T12:52:42;9.87;;;8.63;;
3054;SDS011;1537;52.018;8.542;2023-03-19T12:56:09;16.60;;;14.43;;
3054;SDS011;1537;52.018;8.542;2023-03-19T12:59:37;9.70;;;8.70;;
3054;SDS011;1537;52.018;8.542;2023-03-19T13:03:06;10.03;;;8.90;;
3054;SDS011;1537;52.018;8.542;2023-03-19T13:06:36;11.40;;;8.90;;
3054;SDS011;1537;52.018;8.542;2023-03-19T13:10:05;10.40;;;8.60;;
3054;SDS011;1537;52.018;8.542;2023-03-19T13:13:37;10.37;;;8.80;;
3054;SDS011;1537;52.018;8.542;2023-03-19T13:17:07;10.40;;;8.60;;
3054;SDS011;1537;52.018;8.542;2023-03-19T13:20:41;10.57;;;9.40;;
3054;SDS011;1537;52.018;8.542;2023-03-19T13:24:18;11.20;;;10.00;;
3054;SDS011;1537;52.018;8.542;2023-03-19T13:27:51;12.13;;;9.80;;
3054;SDS011;1537;52.018;8.542;2023-03-19T13:31:17;14.83;;;9.43;;
3054;SDS011;1537;52.018;8.542;2023-03-19T13:34:43;10.97;;;9.10;;
3054;SDS011;1537;52.018;8.542;2023-03-19T13:38:15;11.03;;;9.60;;
3054;SDS011;1537;52.018;8.542;2023-03-19T13:41:52;14.03;;;10.30;;
3054;SDS011;1537;52.018;8.542;2023-03-19T13:45:29;12.97;;;10.13;;
3054;SDS011;1537;52.018;8.542;2023-03-19T13:49:01;11.93;;;9.23;;
3054;SDS011;1537;52.018;8.542;2023-03-19T13:56:55;13.47;;;9.23;;
3054;SDS011;1537;52.018;8.542;2023-03-19T14:00:53;12.23;;;10.20;;
3054;SDS011;1537;52.018;8.542;2023-03-19T14:04:20;12.07;;;10.60;;
3054;SDS011;1537;52.018;8.542;2023-03-19T14:07:52;12.33;;;10.80;;
3054;SDS011;1537;52.018;8.542;2023-03-19T14:11:20;11.20;;;9.43;;
3054;SDS011;1537;52.018;8.542;2023-03-19T14:14:46;11.77;;;9.60;;
3054;SDS011;1537;52.018;8.542;2023-03-19T14:18:15;13.23;;;11.83;;
3054;SDS011;1537;52.018;8.542;2023-03-19T14:21:44;11.47;;;9.63;;
3054;SDS011;1537;52.018;8.542;2023-03-19T14:25:24;13.17;;;9.30;;
3054;SDS011;1537;52.018;8.542;2023-03-19T14:28:52;12.70;;;9.47;;
3054;SDS011;1537;52.018;8.542;2023-03-19T14:32:21;10.63;;;8.70;;
3054;SDS011;1537;52.018;8.542;2023-03-19T14:35:51;12.80;;;10.67;;
3054;SDS011;1537;52.018;8.542;2023-03-19T14:39:17;11.97;;;9.33;;
3054;SDS011;1537;52.018;8.542;2023-03-19T14:42:49;10.80;;;9.20;;
3054;SDS011;1537;52.018;8.542;2023-03-19T14:46:21;12.83;;;9.67;;
3054;SDS011;1537;52.018;8.542;2023-03-19T14:49:56;11.87;;;9.20;;
3054;SDS011;1537;52.018;8.542;2023-03-19T14:53:39;12.90;;;9.67;;
3054;SDS011;1537;52.018;8.542;2023-03-19T14:57:06;10.23;;;9.23;;
3054;SDS011;1537;52.018;8.542;2023-03-19T15:00:36;10.07;;;8.50;;
3054;SDS011;1537;52.018;8.542;2023-03-19T15:04:06;10.90;;;9.60;;
3054;SDS011;1537;52.018;8.542;2023-03-19T15:07:32;10.40;;;9.40;;
3054;SDS011;1537;52.018;8.542;2023-03-19T15:11:03;14.70;;;9.33;;
3054;SDS011;1537;52.018;8.542;2023-03-19T15:14:47;10.37;;;8.63;;
3054;SDS011;1537;52.018;8.542;2023-03-19T15:18:26;12.87;;;10.60;;
3054;SDS011;1537;52.018;8.542;2023-03-19T15:21:50;14.90;;;10.70;;
3054;SDS011;1537;52.018;8.542;2023-03-19T15:25:14;12.67;;;10.40;;
3054;SDS011;1537;52.018;8.542;2023-03-19T15:28:46;10.40;;;9.30;;
3054;SDS011;1537;52.018;8.542;2023-03-19T15:32:29;9.00;;;7.77;;
3054;SDS011;1537;52.018;8.542;2023-03-19T15:36:14;7.20;;;5.60;;
3054;SDS011;1537;52.018;8.542;2023-03-19T15:39:41;6.10;;;5.50;;
3054;SDS011;1537;52.018;8.542;2023-03-19T15:43:07;7.70;;;5.70;;
3054;SDS011;1537;52.018;8.542;2023-03-19T15:46:35;7.37;;;5.40;;
3054;SDS011;1537;52.018;8.542;2023-03-19T15:50:04;7.23;;;6.13;;
3054;SDS011;1537;52.018;8.542;2023-03-19T15:53:33;6.87;;;5.27;;
3054;SDS011;1537;52.018;8.542;2023-03-19T15:56:58;6.47;;;5.30;;
3054;SDS011;1537;52.018;8.542;2023-03-19T16:00:22;7.00;;;5.80;;
3054;SDS011;1537;52.018;8.542;2023-03-19T16:03:50;8.60;;;6.77;;
3054;SDS011;1537;52.018;8.542;2023-03-19T16:07:22;8.17;;;6.77;;
3054;SDS011;1537;52.018;8.542;2023-03-19T16:10:47;8.20;;;7.30;;
3054;SDS011;1537;52.018;8.542;2023-03-19T16:14:16;7.73;;;5.80;;
3054;SDS011;1537;52.018;8.542;2023-03-19T16:17:46;7.53;;;5.73;;
3054;SDS011;1537;52.018;8.542;2023-03-19T16:21:13;8.23;;;7.30;;
3054;SDS011;1537;52.018;8.542;2023-03-19T16:24:39;6.90;;;5.60;;
3054;SDS011;1537;52.018;8.542;2023-03-19T16:28:11;8.20;;;6.37;;
3054;SDS011;1537;52.018;8.542;2023-03-19T16:31:42;8.00;;;6.10;;
3054;SDS011;1537;52.018;8.542;2023-03-19T16:35:10;8.40;;;5.33;;
3054;SDS011;1537;52.018;8.542;2023-03-19T16:38:41;7.47;;;5.80;;
3054;SDS011;1537;52.018;8.542;2023-03-19T16:46:04;6.93;;;5.80;;
3054;SDS011;1537;52.018;8.542;2023-03-19T16:49:31;7.97;;;6.17;;
3054;SDS011;1537;52.018;8.542;2023-03-19T16:52:55;8.00;;;5.80;;
3054;SDS011;1537;52.018;8.542;2023-03-19T16:56:21;7.77;;;6.60;;
3054;SDS011;1537;52.018;8.542;2023-03-19T16:59:45;9.60;;;6.50;;
3054;SDS011;1537;52.018;8.542;2023-03-19T17:03:10;7.33;;;5.90;;
3054;SDS011;1537;52.018;8.542;2023-03-19T17:06:35;8.30;;;5.90;;
3054;SDS011;1537;52.018;8.542;2023-03-19T17:09:59;7.27;;;5.90;;
3054;SDS011;1537;52.018;8.542;2023-03-19T17:13:25;8.87;;;6.87;;
3054;SDS011;1537;52.018;8.542;2023-03-19T17:16:50;7.83;;;6.90;;
3054;SDS011;1537;52.018;8.542;2023-03-19T17:23:40;13.60;;;7.83;;
3054;SDS011;1537;52.018;8.542;2023-03-19T17:27:04;10.30;;;7.97;;
3054;SDS011;1537;52.018;8.542;2023-03-19T17:30:29;9.80;;;7.30;;
3054;SDS011;1537;52.018;8.542;2023-03-19T17:33:54;10.57;;;7.20;;
3054;SDS011;1537;52.018;8.542;2023-03-19T17:37:22;9.80;;;7.93;;
3054;SDS011;1537;52.018;8.542;2023-03-19T17:40:46;9.20;;;7.47;;
3054;SDS011;1537;52.018;8.542;2023-03-19T17:44:10;10.00;;;8.40;;
3054;SDS011;1537;52.018;8.542;2023-03-19T17:47:36;11.33;;;9.03;;
3054;SDS011;1537;52.018;8.542;2023-03-19T17:51:00;12.13;;;10.13;;
3054;SDS011;1537;52.018;8.542;2023-03-19T17:54:24;11.27;;;9.50;;
3054;SDS011;1537;52.018;8.542;2023-03-19T17:57:49;11.30;;;8.20;;
3054;SDS011;1537;52.018;8.542;2023-03-19T18:01:14;12.03;;;10.37;;
3054;SDS011;1537;52.018;8.542;2023-03-19T18:04:41;13.13;;;9.97;;
3054;SDS011;1537;52.018;8.542;2023-03-19T18:08:05;13.37;;;9.20;;
3054;SDS011;1537;52.018;8.542;2023-03-19T18:11:29;13.40;;;10.13;;
3054;SDS011;1537;52.018;8.542;2023-03-19T18:14:52;13.53;;;9.93;;
3054;SDS011;1537;52.018;8.542;2023-03-19T18:18:17;14.53;;;10.37;;
3054;SDS011;1537;52.018;8.542;2023-03-19T18:21:44;12.20;;;9.70;;
3054;SDS011;1537;52.018;8.542;2023-03-19T18:25:12;12.70;;;10.13;;
3054;SDS011;1537;52.018;8.542;2023-03-19T18:28:38;11.97;;;9.90;;
3054;SDS011;1537;52.018;8.542;2023-03-19T18:32:02;12.73;;;9.90;;
3054;SDS011;1537;52.018;8.542;2023-03-19T18:35:29;14.23;;;11.10;;
3054;SDS011;1537;52.018;8.542;2023-03-19T18:38:56;14.60;;;11.57;;
3054;SDS011;1537;52.018;8.542;2023-03-19T18:42:20;17.13;;;10.37;;
3054;SDS011;1537;52.018;8.542;2023-03-19T18:45:44;15.97;;;11.90;;
3054;SDS011;1537;52.018;8.542;2023-03-19T18:49:15;15.33;;;11.70;;
3054;SDS011;1537;52.018;8.542;2023-03-19T18:52:42;14.83;;;11.70;;
3054;SDS011;1537;52.018;8.542;2023-03-19T18:56:11;15.27;;;11.00;;
3054;SDS011;1537;52.018;8.542;2023-03-19T18:59:42;16.90;;;11.30;;
3054;SDS011;1537;52.018;8.542;2023-03-19T19:03:05;17.47;;;13.30;;
3054;SDS011;1537;52.018;8.542;2023-03-19T19:06:29;14.43;;;11.13;;
3054;SDS011;1537;52.018;8.542;2023-03-19T19:10:09;15.53;;;11.93;;
3054;SDS011;1537;52.018;8.542;2023-03-19T19:13:35;17.50;;;13.20;;
3054;SDS011;1537;52.018;8.542;2023-03-19T19:17:17;16.50;;;11.17;;
3054;SDS011;1537;52.018;8.542;2023-03-19T19:20:44;13.20;;;10.97;;
3054;SDS011;1537;52.018;8.542;2023-03-19T19:24:09;16.07;;;12.50;;
3054;SDS011;1537;52.018;8.542;2023-03-19T19:27:35;16.37;;;11.93;;
3054;SDS011;1537;52.018;8.542;2023-03-19T19:31:00;19.17;;;13.60;;
3054;SDS011;1537;52.018;8.542;2023-03-19T19:34:24;15.30;;;11.57;;
3054;SDS011;1537;52.018;8.542;2023-03-19T19:37:48;20.07;;;12.30;;
3054;SDS011;1537;52.018;8.542;2023-03-19T19:41:12;14.77;;;11.67;;
3054;SDS011;1537;52.018;8.542;2023-03-19T19:44:38;17.33;;;12.30;;
3054;SDS011;1537;52.018;8.542;2023-03-19T19:48:04;22.30;;;14.67;;
3054;SDS011;1537;52.018;8.542;2023-03-19T19:51:34;16.67;;;12.50;;
3054;SDS011;1537;52.018;8.542;2023-03-19T19:54:59;16.03;;;12.90;;
3054;SDS011;1537;52.018;8.542;2023-03-19T19:58:24;16.83;;;12.27;;
3054;SDS011;1537;52.018;8.542;2023-03-19T20:01:51;17.33;;;12.73;;
3054;SDS011;1537;52.018;8.542;2023-03-19T20:05:18;16.77;;;11.90;;
3054;SDS011;1537;52.018;8.542;2023-03-19T20:08:44;15.70;;;11.80;;
3054;SDS011;1537;52.018;8.542;2023-03-19T20:12:13;18.27;;;12.67;;
3054;SDS011;1537;52.018;8.542;2023-03-19T20:15:42;17.20;;;13.20;;
3054;SDS011;1537;52.018;8.542;2023-03-19T20:19:07;17.83;;;12.43;;
3054;SDS011;1537;52.018;8.542;2023-03-19T20:22:39;16.67;;;12.03;;
3054;SDS011;1537;52.018;8.542;2023-03-19T20:26:03;16.87;;;12.13;;
3054;SDS011;1537;52.018;8.542;2023-03-19T20:29:27;18.20;;;12.40;;
3054;SDS011;1537;52.018;8.542;2023-03-19T20:32:55;16.80;;;13.10;;
3054;SDS011;1537;52.018;8.542;2023-03-19T20:36:20;17.97;;;13.33;;
3054;SDS011;1537;52.018;8.542;2023-03-19T20:39:45;16.63;;;12.90;;
3054;SDS011;1537;52.018;8.542;2023-03-19T20:43:12;17.23;;;14.20;;
3054;SDS011;1537;52.018;8.542;2023-03-19T20:46:44;15.13;;;12.10;;
3054;SDS011;1537;52.018;8.542;2023-03-19T20:50:13;18.20;;;12.40;;
3054;SDS011;1537;52.018;8.542;2023-03-19T20:53:39;18.73;;;13.63;;
3054;SDS011;1537;52.018;8.542;2023-03-19T20:57:04;18.10;;;13.37;;
3054;SDS011;1537;52.018;8.542;2023-03-19T21:00:28;16.33;;;13.63;;
3054;SDS011;1537;52.018;8.542;2023-03-19T21:03:53;18.77;;;12.67;;
3054;SDS011;1537;52.018;8.542;2023-03-19T21:07:24;16.43;;;11.80;;
3054;SDS011;1537;52.018;8.542;2023-03-19T21:10:54;17.90;;;13.87;;
3054;SDS011;1537;52.018;8.542;2023-03-19T21:14:19;16.30;;;13.10;;
3054;SDS011;1537;52.018;8.542;2023-03-19T21:17:44;16.40;;;11.87;;
3054;SDS011;1537;52.018;8.542;2023-03-19T21:21:08;19.80;;;14.10;;
3054;SDS011;1537;52.018;8.542;2023-03-19T21:24:34;17.57;;;13.50;;
3054;SDS011;1537;52.018;8.542;2023-03-19T21:27:58;18.13;;;13.53;;
3054;SDS011;1537;52.018;8.542;2023-03-19T21:31:25;16.47;;;13.57;;
3054;SDS011;1537;52.018;8.542;2023-03-19T21:34:50;20.87;;;14.00;;
3054;SDS011;1537;52.018;8.542;2023-03-19T21:38:14;23.00;;;15.50;;